Time;durP1;ratioP1;P1;durP2;ratioP2;P2;SDS_P1;SDS_P2;PMS_P1;PMS_P2;Temp;Humidity;BMP_temperature;BMP_pressure;BME280_temperature;BME280_humidity;BME280_pressure;Samples;Min_cycle;Max_cycle;Signal;HPM_P1;HPM_P2
2021/06/01 00:01:03;;;;;;;6.57;4.40;;;;;;;13.52;61.63;99852.38;5009357;28;20049;-54
2021/06/01 00:03:29;;;;;;;5.18;4.20;;;;;;;13.67;61.07;99852.38;5023216;28;20040;-55
2021/06/01 00:05:54;;;;;;;11.23;5.55;;;;;;;13.74;60.54;99851.06;5022579;28;20056;-51
2021/06/01 00:08:19;;;;;;;7.20;5.47;;;;;;;13.62;59.84;99846.53;5001836;28;20033;-53
2021/06/01 00:10:45;;;;;;;7.93;5.43;;;;;;;13.48;60.52;99847.34;5024728;28;20052;-55
2021/06/01 00:13:10;;;;;;;8.43;5.30;;;;;;;13.40;60.50;99853.09;5024783;28;20117;-56
2021/06/01 00:15:35;;;;;;;11.68;6.25;;;;;;;13.38;60.30;99849.69;5027406;28;20044;-56
2021/06/01 00:18:01;;;;;;;7.35;5.28;;;;;;;13.34;61.51;99853.50;5031217;28;20041;-70
2021/06/01 00:20:26;;;;;;;8.77;5.57;;;;;;;13.22;61.55;99849.72;5026083;28;20076;-70
2021/06/01 00:22:51;;;;;;;8.27;5.95;;;;;;;13.05;62.81;99848.06;5032088;28;20076;-70
2021/06/01 00:25:17;;;;;;;6.85;4.78;;;;;;;12.96;62.10;99853.91;5034130;28;20057;-70
2021/06/01 00:27:42;;;;;;;7.78;4.68;;;;;;;12.97;61.30;99852.97;5040543;28;20037;-69
2021/06/01 00:30:08;;;;;;;8.40;5.82;;;;;;;12.86;62.42;99853.56;5032935;28;20029;-70
2021/06/01 00:32:33;;;;;;;9.93;5.40;;;;;;;12.77;62.14;99851.44;5032454;28;20116;-69
2021/06/01 00:34:59;;;;;;;7.07;5.32;;;;;;;12.70;61.75;99854.53;5027397;28;20124;-70
2021/06/01 00:37:24;;;;;;;5.57;4.53;;;;;;;12.65;62.26;99852.16;5019095;28;20040;-70
2021/06/01 00:39:50;;;;;;;10.13;5.85;;;;;;;12.60;62.32;99854.19;5011850;28;20034;-70
2021/06/01 00:42:15;;;;;;;8.10;5.20;;;;;;;12.53;62.59;99858.13;5030069;28;20477;-70
2021/06/01 00:44:41;;;;;;;7.03;5.10;;;;;;;12.39;63.55;99853.63;5031739;28;20048;-70
2021/06/01 00:47:06;;;;;;;13.18;5.53;;;;;;;12.28;63.28;99859.53;5031147;28;20059;-70
2021/06/01 00:49:31;;;;;;;7.00;5.50;;;;;;;12.19;63.47;99852.94;5030993;28;20049;-71
2021/06/01 00:51:57;;;;;;;11.57;5.68;;;;;;;12.18;63.78;99856.53;5030398;28;20034;-70
2021/06/01 00:54:22;;;;;;;8.38;4.65;;;;;;;12.15;63.56;99851.38;5030665;28;20036;-70
2021/06/01 00:56:47;;;;;;;7.57;5.07;;;;;;;12.11;64.27;99854.28;5030493;28;20040;-69
2021/06/01 00:59:14;;;;;;;5.95;4.65;;;;;;;12.02;64.66;99847.72;5030522;28;20052;-69
2021/06/01 01:01:40;;;;;;;7.13;4.75;;;;;;;11.97;63.75;99850.59;5006017;28;20029;-70
2021/06/01 01:04:05;;;;;;;6.45;4.45;;;;;;;11.96;63.93;99855.97;5028724;28;20389;-69
2021/06/01 01:06:41;;;;;;;7.93;5.22;;;;;;;11.95;64.30;99860.41;5020748;28;20038;-70
2021/06/01 01:09:09;;;;;;;6.10;5.07;;;;;;;11.94;64.27;99860.50;5010561;28;20038;-69
2021/06/01 01:11:42;;;;;;;8.73;4.75;;;;;;;11.94;64.14;99858.72;5024341;28;20060;-70
2021/06/01 01:14:12;;;;;;;8.90;3.85;;;;;;;11.91;64.15;99858.88;5030068;28;20029;-70
2021/06/01 01:16:42;;;;;;;6.45;4.50;;;;;;;11.90;64.32;99862.44;5029582;28;20421;-71
2021/06/01 01:19:14;;;;;;;7.85;4.57;;;;;;;11.91;64.34;99855.34;5029828;28;20040;-69
2021/06/01 01:21:51;;;;;;;9.07;4.85;;;;;;;11.89;64.57;99855.47;5029489;28;20033;-70
2021/06/01 01:24:47;;;;;;;8.98;4.68;;;;;;;11.84;65.05;99857.47;5011853;28;20037;-70
2021/06/01 01:27:15;;;;;;;;;;;;;;;11.78;65.16;99861.25;5017102;28;20049;-70
2021/06/01 01:29:47;;;;;;;6.18;4.28;;;;;;;11.74;64.96;99862.38;5013253;28;19924;-69
2021/06/01 01:32:21;;;;;;;7.15;4.30;;;;;;;11.69;65.16;99867.06;5012660;28;20060;-70
2021/06/01 01:34:49;;;;;;;7.07;4.57;;;;;;;11.64;64.74;99860.28;5029903;28;20038;-70
2021/06/01 01:37:16;;;;;;;5.97;4.03;;;;;;;11.57;65.07;99857.13;5029054;28;20492;-70
2021/06/01 01:39:47;;;;;;;7.47;4.30;;;;;;;11.50;65.54;99853.94;5029642;28;20140;-70
2021/06/01 01:42:15;;;;;;;8.77;4.63;;;;;;;11.46;65.61;99854.19;5027910;28;21000;-71
2021/06/01 01:44:49;;;;;;;6.97;4.40;;;;;;;11.43;65.49;99851.72;5030055;28;20037;-71
2021/06/01 01:50:09;;;;;;;5.95;4.25;;;;;;;11.37;65.20;99845.81;5027461;28;20033;-69
2021/06/01 01:52:39;;;;;;;8.38;4.88;;;;;;;11.34;65.87;99853.03;5029723;28;20490;-71
2021/06/01 01:55:10;;;;;;;7.70;4.38;;;;;;;11.31;65.01;99850.56;5029513;28;20485;-70
2021/06/01 01:57:37;;;;;;;6.70;5.03;;;;;;;11.29;64.90;99847.97;5019256;28;20034;-71
2021/06/01 02:00:10;;;;;;;6.80;3.67;;;;;;;11.27;64.97;99849.88;5027945;28;20021;-70
2021/06/01 02:02:36;;;;;;;9.88;4.13;;;;;;;11.25;64.65;99854.38;5024461;28;20537;-70
2021/06/01 02:05:04;;;;;;;6.82;4.93;;;;;;;11.22;64.88;99849.22;5010259;28;20120;-71
2021/06/01 02:07:31;;;;;;;6.60;4.78;;;;;;;11.17;65.03;99852.13;5010134;28;20037;-72
2021/06/01 02:09:57;;;;;;;7.55;4.22;;;;;;;11.12;65.14;99851.50;5009841;28;20096;-71
2021/06/01 02:12:23;;;;;;;6.72;4.72;;;;;;;11.05;65.82;99846.56;5009867;28;20478;-71
2021/06/01 02:14:48;;;;;;;8.98;4.72;;;;;;;11.00;66.03;99851.22;5015400;28;20083;-71
2021/06/01 02:17:13;;;;;;;11.75;4.93;;;;;;;10.98;65.70;99845.19;5027435;28;20029;-69
2021/06/01 02:19:39;;;;;;;7.63;4.38;;;;;;;10.97;65.31;99839.06;5029020;28;20109;-70
2021/06/01 02:22:24;;;;;;;7.10;4.70;;;;;;;11.00;65.27;99843.31;5029612;28;20045;-70
2021/06/01 02:25:00;;;;;;;8.47;4.20;;;;;;;10.98;65.04;99846.06;5030573;28;20044;-70
2021/06/01 02:27:46;;;;;;;7.00;4.53;;;;;;;10.95;65.45;99835.63;5029820;28;20038;-70
2021/06/01 02:30:15;;;;;;;5.45;4.45;;;;;;;10.92;65.59;99841.06;5026702;28;20041;-70
2021/06/01 02:32:44;;;;;;;7.35;4.68;;;;;;;10.87;65.10;99837.81;5030290;28;20068;-70
2021/06/01 02:35:14;;;;;;;6.47;4.05;;;;;;;10.83;64.75;99842.41;5023812;28;20117;-70
2021/06/01 02:37:42;;;;;;;5.10;4.20;;;;;;;10.82;64.92;99838.03;5029592;28;20057;-70
2021/06/01 02:40:11;;;;;;;7.82;4.93;;;;;;;10.72;65.08;99840.25;5033872;28;20068;-70
2021/06/01 02:42:41;;;;;;;7.93;5.00;;;;;;;10.68;65.33;99830.81;5033093;28;20033;-70
2021/06/01 02:45:08;;;;;;;8.18;4.13;;;;;;;10.69;65.16;99835.16;5033855;28;20086;-70
2021/06/01 02:47:34;;;;;;;8.85;4.55;;;;;;;10.68;65.88;99835.22;5033787;28;20033;-70
2021/06/01 02:50:03;;;;;;;7.80;4.35;;;;;;;10.66;65.19;99837.09;5031553;28;20067;-70
2021/06/01 02:52:29;;;;;;;8.25;3.88;;;;;;;10.64;65.69;99828.41;5032965;28;20040;-70
2021/06/01 02:54:54;;;;;;;8.02;3.95;;;;;;;10.62;65.07;99835.53;5032819;28;20041;-70
2021/06/01 02:57:20;;;;;;;5.82;3.78;;;;;;;10.57;65.04;99830.47;5034525;28;20029;-70
2021/06/01 02:59:46;;;;;;;6.85;4.18;;;;;;;10.56;65.46;99820.88;5033973;28;20087;-70
2021/06/01 03:02:12;;;;;;;5.32;3.75;;;;;;;10.55;66.08;99824.41;5032932;28;20033;-69
2021/06/01 03:04:51;;;;;;;6.72;3.70;;;;;;;10.52;65.41;99816.66;5032011;28;20041;-69
2021/06/01 03:07:17;;;;;;;6.78;3.95;;;;;;;10.46;65.72;99822.22;5031780;28;20037;-69
2021/06/01 03:09:43;;;;;;;6.82;4.22;;;;;;;10.42;65.67;99818.03;5031949;28;20077;-70
2021/06/01 03:12:19;;;;;;;5.65;3.92;;;;;;;10.38;66.09;99830.50;5032314;28;20490;-70
2021/06/01 03:14:45;;;;;;;7.57;3.80;;;;;;;10.36;65.70;99819.19;5032163;28;20393;-70
2021/06/01 03:17:10;;;;;;;4.95;3.78;;;;;;;10.34;65.59;99825.44;5027558;28;20037;-70
2021/06/01 03:19:36;;;;;;;8.60;5.03;;;;;;;10.33;66.09;99819.31;5020165;28;20030;-69
2021/06/01 03:22:01;;;;;;;6.07;4.45;;;;;;;10.28;65.59;99814.25;5012274;28;20401;-70
2021/06/01 03:24:26;;;;;;;5.95;4.28;;;;;;;10.26;66.12;99817.88;5029084;28;20103;-70
2021/06/01 03:26:52;;;;;;;6.10;4.35;;;;;;;10.19;66.75;99816.44;5031713;28;20493;-70
2021/06/01 03:29:17;;;;;;;7.30;4.65;;;;;;;10.16;66.45;99813.97;5030547;28;20038;-69
2021/06/01 03:31:42;;;;;;;5.25;3.85;;;;;;;10.16;67.27;99816.59;5031878;28;20121;-69
2021/06/01 03:34:08;;;;;;;5.75;4.28;;;;;;;10.14;66.93;99818.44;5031933;28;20031;-70
2021/06/01 03:36:33;;;;;;;7.05;4.88;;;;;;;10.12;67.59;99821.19;5014155;28;20404;-70
2021/06/01 03:39:02;;;;;;;6.60;4.97;;;;;;;10.08;67.16;99823.06;5016157;28;20460;-70
2021/06/01 03:41:28;;;;;;;6.75;4.68;;;;;;;10.07;67.61;99815.28;5019559;28;20060;-70
2021/06/01 03:43:53;;;;;;;4.38;3.95;;;;;;;10.02;68.19;99814.63;5011763;28;20038;-70
2021/06/01 03:46:18;;;;;;;7.93;4.55;;;;;;;10.00;68.04;99808.56;5030233;28;20033;-70
2021/06/01 03:48:44;;;;;;;4.93;4.18;;;;;;;9.97;67.79;99809.56;5031221;28;20048;-70
2021/06/01 03:51:09;;;;;;;9.77;4.63;;;;;;;9.98;67.81;99813.91;5031593;28;20084;-69
2021/06/01 03:53:35;;;;;;;6.00;4.03;;;;;;;9.99;67.30;99813.00;5031148;28;20453;-69
2021/06/01 03:56:00;;;;;;;7.90;4.45;;;;;;;10.03;66.91;99811.91;5030970;28;20037;-69
2021/06/01 03:58:26;;;;;;;4.68;4.18;;;;;;;10.09;66.44;99821.28;5031401;28;20034;-69
2021/06/01 04:00:51;;;;;;;8.63;4.45;;;;;;;10.09;66.31;99819.53;5031779;28;20131;-69
2021/06/01 04:03:16;;;;;;;8.05;4.28;;;;;;;10.09;67.28;99819.53;5030865;28;20068;-69
2021/06/01 04:05:42;;;;;;;6.05;3.80;;;;;;;10.10;67.36;99823.03;5030507;28;20485;-69
2021/06/01 04:08:07;;;;;;;6.28;4.07;;;;;;;10.12;67.34;99825.59;5028892;28;20493;-69
2021/06/01 04:10:33;;;;;;;6.88;4.70;;;;;;;10.17;66.92;99821.81;5021991;28;20026;-68
2021/06/01 04:12:58;;;;;;;5.75;3.65;;;;;;;10.22;66.97;99829.50;5011482;28;20037;-69
2021/06/01 04:15:24;;;;;;;7.85;5.10;;;;;;;10.25;67.47;99826.72;5024242;28;20060;-69
2021/06/01 04:17:50;;;;;;;7.15;4.47;;;;;;;10.25;67.53;99824.94;5030798;28;20120;-69
2021/06/01 04:20:15;;;;;;;8.07;4.35;;;;;;;10.28;66.82;99829.22;5030952;28;20434;-70
2021/06/01 04:22:41;;;;;;;7.50;3.90;;;;;;;10.31;67.15;99823.81;5030967;28;20120;-70
2021/06/01 04:25:07;;;;;;;5.80;4.00;;;;;;;10.34;66.76;99823.69;5030647;28;20485;-69
2021/06/01 04:27:34;;;;;;;6.22;3.95;;;;;;;10.40;65.79;99827.81;5016296;28;20030;-70
2021/06/01 04:29:59;;;;;;;6.72;4.13;;;;;;;10.48;66.14;99828.28;5011029;28;20033;-69
2021/06/01 04:32:24;;;;;;;7.68;3.25;;;;;;;10.52;65.81;99828.06;5011323;28;20508;-70
2021/06/01 04:34:50;;;;;;;7.47;4.53;;;;;;;10.59;66.78;99830.41;5015401;28;20538;-69
2021/06/01 04:37:15;;;;;;;6.47;4.28;;;;;;;10.65;66.72;99832.72;5017414;28;20034;-69
2021/06/01 04:39:40;;;;;;;6.00;4.75;;;;;;;10.70;66.83;99830.72;5028818;28;20124;-69
2021/06/01 04:42:06;;;;;;;6.28;4.18;;;;;;;10.79;66.77;99826.78;5029009;28;20037;-70
2021/06/01 04:44:31;;;;;;;9.40;4.32;;;;;;;10.86;67.06;99831.69;5030291;28;20026;-70
2021/06/01 04:46:57;;;;;;;9.30;4.10;;;;;;;10.96;66.85;99826.81;5030193;28;20125;-69
2021/06/01 04:49:23;;;;;;;5.55;4.13;;;;;;;11.04;66.82;99821.16;5030749;28;20057;-71
2021/06/01 04:51:49;;;;;;;6.25;4.13;;;;;;;11.11;66.00;99822.53;5030696;28;20510;-70
2021/06/01 04:54:14;;;;;;;8.82;4.32;;;;;;;11.23;66.56;99823.72;5030527;28;20041;-70
2021/06/01 04:56:39;;;;;;;10.48;4.55;;;;;;;11.37;65.84;99829.97;5029183;28;20036;-70
2021/06/01 04:59:05;;;;;;;6.50;5.18;;;;;;;11.56;66.20;99824.56;5024305;28;20029;-70
2021/06/01 05:01:30;;;;;;;10.88;5.60;;;;;;;11.85;65.28;99821.31;5025259;28;20041;-70
2021/06/01 05:03:56;;;;;;;11.73;5.15;;;;;;;12.24;63.78;99819.16;5031682;28;20065;-70
2021/06/01 05:06:21;;;;;;;12.50;4.53;;;;;;;12.64;62.64;99827.50;5007996;28;20034;-69
2021/06/01 05:08:47;;;;;;;8.38;4.32;;;;;;;13.11;61.14;99817.75;5010138;28;20042;-70
2021/06/01 05:11:12;;;;;;;7.80;5.45;;;;;;;13.55;60.55;99813.41;5009929;28;20116;-70
2021/06/01 05:13:38;;;;;;;5.93;4.30;;;;;;;13.97;58.32;99812.53;5009594;28;20030;-70
2021/06/01 05:16:04;;;;;;;9.35;4.43;;;;;;;14.22;58.24;99811.81;5009714;28;20041;-70
2021/06/01 05:18:30;;;;;;;9.65;4.72;;;;;;;14.52;56.67;99811.66;5029336;28;20037;-71
2021/06/01 05:20:55;;;;;;;7.75;4.03;;;;;;;14.93;56.05;99812.56;5029602;28;20037;-70
2021/06/01 05:23:20;;;;;;;8.80;4.30;;;;;;;15.35;54.70;99810.59;5030227;28;20076;-71
2021/06/01 05:25:46;;;;;;;6.68;3.90;;;;;;;15.81;53.82;99805.63;5028230;28;20362;-70
2021/06/01 05:28:12;;;;;;;11.27;4.30;;;;;;;16.19;53.25;99811.81;5018418;28;20124;-70
2021/06/01 05:30:42;;;;;;;7.10;4.45;;;;;;;16.39;51.95;99803.25;5029801;28;20124;-70
2021/06/01 05:33:12;;;;;;;13.75;5.07;;;;;;;16.60;51.37;99799.97;5013583;28;20038;-70
2021/06/01 05:35:43;;;;;;;15.43;5.93;;;;;;;16.88;50.48;99802.31;5007895;28;20036;-70
2021/06/01 05:38:09;;;;;;;14.20;6.28;;;;;;;17.37;50.45;99798.53;5010006;28;20026;-69
2021/06/01 05:40:35;;;;;;;13.43;5.65;;;;;;;17.95;49.43;99801.16;5009746;28;20121;-69
2021/06/01 05:43:01;;;;;;;11.75;4.65;;;;;;;18.56;46.89;99799.84;5010105;28;20034;-69
2021/06/01 05:45:27;;;;;;;13.40;5.07;;;;;;;19.07;47.35;99799.16;5025991;28;20025;-70
2021/06/01 05:47:52;;;;;;;9.82;4.40;;;;;;;19.36;45.81;99794.00;5029701;28;20397;-71
2021/06/01 05:50:17;;;;;;;25.40;5.63;;;;;;;19.61;44.36;99794.56;5029151;28;20041;-70
2021/06/01 05:52:43;;;;;;;13.05;5.35;;;;;;;19.49;43.03;99792.00;5029049;28;20033;-70
2021/06/01 05:55:09;;;;;;;17.02;5.88;;;;;;;19.28;45.24;99796.50;5029010;28;20041;-69
2021/06/01 05:57:35;;;;;;;15.10;6.32;;;;;;;19.30;45.84;99790.03;5028364;28;20087;-71
2021/06/01 06:00:01;;;;;;;17.92;5.95;;;;;;;19.41;45.10;99789.13;5029007;28;20045;-71
2021/06/01 06:02:26;;;;;;;35.33;7.75;;;;;;;19.65;45.08;99796.00;5029174;28;20091;-72
2021/06/01 06:04:51;;;;;;;34.70;8.20;;;;;;;19.70;45.14;99794.66;5029651;28;20053;-70
2021/06/01 06:07:17;;;;;;;20.75;6.05;;;;;;;19.73;43.77;99786.34;5029964;28;20033;-70
2021/06/01 06:09:42;;;;;;;22.27;6.57;;;;;;;19.82;43.97;99790.06;5027638;28;20052;-70
2021/06/01 06:12:08;;;;;;;15.95;5.72;;;;;;;19.97;44.31;99787.88;5013331;28;20029;-71
2021/06/01 06:14:34;;;;;;;9.93;4.80;;;;;;;20.11;40.33;99784.81;5020933;28;20029;-71
2021/06/01 06:17:08;;;;;;;12.00;4.88;;;;;;;20.27;42.24;99791.47;5033026;28;20588;-71
2021/06/01 06:19:40;;;;;;;48.83;9.13;;;;;;;20.31;42.38;99787.53;5033501;28;20143;-70
2021/06/01 06:22:05;;;;;;;9.40;3.75;;;;;;;20.46;38.01;99788.81;5033262;28;20033;-71
2021/06/01 06:24:31;;;;;;;8.07;3.20;;;;;;;20.49;37.36;99785.03;5032056;28;20159;-70
2021/06/01 06:26:57;;;;;;;20.85;6.53;;;;;;;20.48;39.43;99778.81;5023662;28;20541;-72
2021/06/01 06:29:22;;;;;;;10.25;4.65;;;;;;;20.55;39.17;99774.63;5022823;28;20037;-70
2021/06/01 06:31:47;;;;;;;10.70;4.80;;;;;;;20.63;38.73;99773.94;5026888;28;20037;-69
2021/06/01 06:34:13;;;;;;;24.50;5.40;;;;;;;20.74;38.83;99775.63;5030505;28;20033;-69
2021/06/01 06:36:38;;;;;;;11.00;3.97;;;;;;;20.82;37.75;99772.22;5031863;28;20039;-69
2021/06/01 06:39:07;;;;;;;6.55;3.72;;;;;;;20.93;37.21;99764.06;5031479;28;20120;-69
2021/06/01 06:41:33;;;;;;;24.17;5.85;;;;;;;21.06;37.81;99763.75;5032870;28;20493;-70
2021/06/01 06:43:58;;;;;;;28.52;6.50;;;;;;;21.19;37.29;99765.16;5032780;28;20037;-70
2021/06/01 06:48:50;;;;;;;37.05;6.10;;;;;;;21.15;37.61;99769.09;5031014;28;20578;-53
2021/06/01 06:51:15;;;;;;;14.90;4.55;;;;;;;21.29;36.87;99767.81;5019430;28;20072;-53
2021/06/01 06:54:00;;;;;;;58.60;8.55;;;;;;;21.56;36.71;99763.50;5032558;28;20064;-51
2021/06/01 06:56:28;;;;;;;20.63;5.50;;;;;;;21.88;36.44;99765.78;5031977;28;20030;-55
2021/06/01 06:58:56;;;;;;;18.67;5.45;;;;;;;22.00;35.34;99763.72;5032247;28;20029;-52
2021/06/01 07:01:21;;;;;;;6.55;2.95;;;;;;;22.02;33.31;99761.75;5032470;28;20489;-52
2021/06/01 07:03:47;;;;;;;5.95;3.20;;;;;;;22.18;32.70;99755.75;5020760;28;20073;-69
2021/06/01 07:06:12;;;;;;;7.10;3.38;;;;;;;22.56;32.43;99756.47;5024745;28;20522;-68
2021/06/01 07:08:38;;;;;;;4.80;2.45;;;;;;;23.06;31.78;99759.47;5026196;28;20037;-68
2021/06/01 07:11:03;;;;;;;11.18;4.25;;;;;;;23.20;31.27;99758.06;5025521;28;20061;-68
2021/06/01 07:13:44;;;;;;;7.55;3.00;;;;;;;23.24;30.93;99762.13;5026822;28;20056;-68
2021/06/01 07:16:11;;;;;;;10.02;3.17;;;;;;;23.83;29.03;99756.09;5026688;28;20041;-67
2021/06/01 07:18:39;;;;;;;5.50;2.60;;;;;;;24.05;26.56;99758.19;5019957;28;20112;-69
2021/06/01 07:21:06;;;;;;;3.85;2.45;;;;;;;24.15;26.75;99761.59;5026598;28;20038;-68
2021/06/01 07:23:33;;;;;;;6.55;2.58;;;;;;;24.22;25.66;99761.78;5024210;28;20044;-68
2021/06/01 07:25:58;;;;;;;2.58;2.13;;;;;;;24.53;24.84;99753.94;5025122;28;20037;-70
2021/06/01 07:28:24;;;;;;;5.70;2.38;;;;;;;24.77;24.63;99752.28;5006925;28;20072;-69
2021/06/01 07:30:50;;;;;;;5.18;2.42;;;;;;;25.31;24.01;99749.91;5006533;28;20083;-70
2021/06/01 07:33:16;;;;;;;4.18;2.88;;;;;;;25.72;23.44;99749.81;5006166;28;20131;-70
2021/06/01 07:35:41;;;;;;;2.97;2.58;;;;;;;26.21;22.68;99744.22;5005791;28;20497;-70
2021/06/01 07:38:10;;;;;;;3.60;2.47;;;;;;;26.55;22.28;99737.59;5005977;28;20069;-71
2021/06/01 07:40:35;;;;;;;7.22;2.65;;;;;;;26.35;21.44;99742.59;5005912;28;20034;-69
2021/06/01 07:43:00;;;;;;;4.05;2.60;;;;;;;26.62;22.21;99748.53;4984721;28;20097;-68
2021/06/01 07:45:26;;;;;;;5.53;2.65;;;;;;;26.80;21.85;99740.09;5015646;28;20044;-69
2021/06/01 07:47:53;;;;;;;5.60;3.00;;;;;;;26.83;21.28;99742.44;5025935;28;20497;-68
2021/06/01 07:50:18;;;;;;;5.90;2.78;;;;;;;26.52;21.31;99748.75;5017072;28;20029;-69
2021/06/01 07:52:44;;;;;;;2.72;2.38;;;;;;;26.21;21.76;99744.22;5002740;28;20323;-68
2021/06/01 07:55:09;;;;;;;3.65;2.60;;;;;;;26.13;22.45;99741.53;5007742;28;20069;-68
2021/06/01 07:57:35;;;;;;;5.60;2.88;;;;;;;26.35;22.30;99737.19;5025906;28;20040;-69
2021/06/01 08:00:00;;;;;;;2.95;2.17;;;;;;;26.55;21.72;99729.47;5025816;28;20044;-68
2021/06/01 08:02:25;;;;;;;4.03;2.20;;;;;;;25.97;22.07;99734.38;5025843;28;20080;-70
2021/06/01 08:04:52;;;;;;;5.40;2.13;;;;;;;26.41;22.33;99730.22;5024778;28;20034;-69
2021/06/01 08:07:18;;;;;;;3.67;2.58;;;;;;;26.69;21.48;99733.28;5025206;28;20041;-69
2021/06/01 08:09:44;;;;;;;4.25;2.33;;;;;;;27.01;21.74;99729.44;5025358;28;20057;-69
2021/06/01 08:12:09;;;;;;;3.15;2.50;;;;;;;27.18;21.52;99722.88;5024601;28;20053;-69
2021/06/01 08:14:35;;;;;;;4.88;2.60;;;;;;;27.65;21.24;99728.13;5025130;28;20044;-70
2021/06/01 08:17:01;;;;;;;3.10;2.38;;;;;;;27.47;21.25;99723.94;5025120;28;20055;-71
2021/06/01 08:19:31;;;;;;;5.75;2.67;;;;;;;27.49;21.63;99718.31;5024714;28;20084;-70
2021/06/01 08:22:10;;;;;;;4.72;2.50;;;;;;;27.83;21.42;99713.16;5025470;28;20045;-69
2021/06/01 08:24:40;;;;;;;5.38;2.95;;;;;;;28.08;21.23;99707.41;5024936;28;20037;-69
2021/06/01 08:27:06;;;;;;;3.15;2.40;;;;;;;27.85;20.72;99707.56;4999228;28;20047;-69
2021/06/01 08:29:32;;;;;;;4.75;2.83;;;;;;;27.68;21.37;99695.25;5001281;28;20779;-70
2021/06/01 08:31:58;;;;;;;3.58;2.65;;;;;;;27.09;21.39;99694.16;5025328;28;20044;-69
2021/06/01 08:34:23;;;;;;;3.38;2.90;;;;;;;26.71;21.90;99690.66;5020096;28;20459;-70
2021/06/01 08:36:52;;;;;;;3.50;2.50;;;;;;;26.65;22.04;99684.09;5023302;28;20493;-69
2021/06/01 08:39:27;;;;;;;3.80;2.60;;;;;;;26.28;21.62;99687.56;5023694;28;20041;-69
2021/06/01 08:41:54;;;;;;;4.25;2.50;;;;;;;26.29;20.91;99695.50;5023102;28;20033;-69
2021/06/01 08:44:20;;;;;;;8.82;2.88;;;;;;;26.46;20.92;99695.38;5025055;28;20045;-69
2021/06/01 08:46:49;;;;;;;3.67;2.55;;;;;;;26.27;20.83;99694.84;5021146;28;20505;-70
2021/06/01 08:49:16;;;;;;;9.48;2.60;;;;;;;25.88;21.21;99692.22;5022592;28;20034;-71
2021/06/01 08:51:42;;;;;;;4.93;2.47;;;;;;;26.14;21.19;99681.09;5023287;28;20094;-69
2021/06/01 08:54:08;;;;;;;4.78;2.70;;;;;;;26.44;20.59;99692.03;5024357;28;20033;-69
2021/06/01 08:56:33;;;;;;;2.70;2.05;;;;;;;26.46;21.24;99685.44;5024391;28;20173;-69
2021/06/01 08:58:59;;;;;;;3.42;2.47;;;;;;;26.61;21.52;99684.66;5024332;28;20037;-70
2021/06/01 09:01:24;;;;;;;3.03;2.38;;;;;;;26.72;20.65;99681.50;5024839;28;20120;-71
2021/06/01 09:03:58;;;;;;;3.55;2.05;;;;;;;27.36;20.06;99681.06;5024314;28;20633;-70
2021/06/01 09:06:41;;;;;;;5.28;2.83;;;;;;;27.74;19.59;99679.06;5023543;28;20512;-70
2021/06/01 09:09:24;;;;;;;3.53;2.55;;;;;;;27.95;19.05;99680.19;5026988;28;20025;-69
2021/06/01 09:12:01;;;;;;;5.57;2.47;;;;;;;27.73;19.08;99674.66;5024944;28;20030;-68
2021/06/01 09:22:37;;;;;;;3.25;2.63;;;;;;;28.57;18.76;99666.03;5020595;28;20075;-69
2021/06/01 09:25:07;;;;;;;3.15;2.30;;;;;;;29.22;18.83;99671.34;5023731;28;20033;-70
2021/06/01 09:27:49;;;;;;;10.65;3.47;;;;;;;30.01;17.82;99670.91;5023761;28;20852;-69
2021/06/01 09:30:37;;;;;;;4.18;2.78;;;;;;;30.48;17.14;99676.47;5024050;28;20690;-71
2021/06/01 09:33:04;;;;;;;5.05;2.80;;;;;;;30.42;17.27;99661.78;5023145;28;20037;-71
2021/06/01 09:35:59;;;;;;;6.15;3.00;;;;;;;30.74;17.10;99667.44;5021951;28;20045;-71
2021/06/01 09:38:27;;;;;;;9.02;2.90;;;;;;;30.28;17.12;99658.22;5024088;28;20140;-70
2021/06/01 09:41:13;;;;;;;4.28;3.00;;;;;;;30.36;17.61;99657.19;5024051;28;20067;-70
2021/06/01 09:44:02;;;;;;;4.65;2.97;;;;;;;30.62;16.57;99645.50;5023052;28;20493;-71
2021/06/01 09:46:32;;;;;;;3.60;2.67;;;;;;;30.17;17.19;99646.03;5023329;28;20048;-69
2021/06/01 09:49:18;;;;;;;3.63;2.78;;;;;;;30.14;17.61;99642.88;5024121;28;20037;-71
2021/06/01 09:51:55;;;;;;;4.35;2.50;;;;;;;30.57;16.90;99657.00;5015071;28;20049;-70
2021/06/01 09:54:46;;;;;;;3.50;2.72;;;;;;;31.23;16.40;99638.91;5023329;28;20042;-72
2021/06/01 09:57:23;;;;;;;7.93;3.03;;;;;;;30.92;16.62;99639.63;5022956;28;20026;-71
2021/06/01 10:00:09;;;;;;;6.93;3.22;;;;;;;31.22;16.37;99640.81;5023481;28;20041;-69
2021/06/01 10:02:35;;;;;;;3.08;2.65;;;;;;;30.93;16.62;99646.75;5023334;28;20045;-71
2021/06/01 10:05:34;;;;;;;4.78;2.45;;;;;;;30.76;16.82;99632.69;5023383;28;20535;-69
2021/06/01 10:08:21;;;;;;;5.13;2.95;;;;;;;30.56;16.76;99638.16;5021251;28;20045;-69
2021/06/01 10:11:04;;;;;;;3.65;2.20;;;;;;;30.45;16.67;99626.03;5022864;28;21850;-70
2021/06/01 10:13:32;;;;;;;3.45;2.65;;;;;;;30.25;17.01;99636.88;5023429;28;20409;-70
2021/06/01 10:16:00;;;;;;;3.70;3.03;;;;;;;30.48;16.99;99631.03;5023624;28;20033;-69
2021/06/01 10:18:30;;;;;;;6.85;2.78;;;;;;;30.20;17.34;99631.19;5024483;28;20111;-70
2021/06/01 10:20:58;;;;;;;3.28;2.28;;;;;;;30.24;17.52;99626.16;5028460;28;20044;-71
2021/06/01 10:23:29;;;;;;;4.07;2.70;;;;;;;30.12;17.65;99629.50;5006637;28;20087;-70
2021/06/01 10:25:55;;;;;;;3.30;2.28;;;;;;;30.42;17.37;99618.25;5019107;28;20033;-70
2021/06/01 10:28:42;;;;;;;3.03;2.25;;;;;;;30.93;16.71;99614.06;5023875;28;20037;-70
2021/06/01 10:31:09;;;;;;;2.85;2.25;;;;;;;31.06;17.68;99611.31;5004377;28;20041;-69
2021/06/01 10:33:51;;;;;;;7.32;3.75;;;;;;;30.49;18.21;99608.22;5006328;28;20030;-69
2021/06/01 10:50:40;;;;;;;7.57;2.30;;;;;;;30.69;18.05;99594.63;5022999;28;20064;-70
2021/06/01 10:53:12;;;;;;;5.53;2.13;;;;;;;30.76;18.42;99586.41;5023304;28;20048;-70
2021/06/01 10:55:52;;;;;;;39.55;2.78;;;;;;;30.28;18.12;99594.84;5026181;28;20108;-70
2021/06/01 10:58:26;;;;;;;4.68;2.30;;;;;;;29.22;19.17;99588.00;5027080;28;20491;-70
2021/06/01 11:04:04;;;;;;;3.13;2.30;;;;;;;27.62;20.73;99602.03;5025925;28;20191;-70
2021/06/01 11:06:58;;;;;;;2.97;2.20;;;;;;;27.12;21.04;99590.97;5018863;28;20461;-71
2021/06/01 11:12:26;;;;;;;8.40;2.70;;;;;;;26.67;21.64;99590.09;5008225;28;20045;-70
2021/06/01 11:14:57;;;;;;;11.02;2.90;;;;;;;26.28;22.14;99579.47;5007084;28;20063;-70
2021/06/01 11:17:35;;;;;;;4.30;2.70;;;;;;;26.10;22.19;99583.31;5007061;28;20070;-70
2021/06/01 11:20:33;;;;;;;8.15;2.60;;;;;;;26.09;23.01;99578.94;5025057;28;20037;-70
2021/06/01 11:33:52;;;;;;;2.63;2.17;;;;;;;25.30;23.64;99578.22;5029002;28;20068;-70
2021/06/01 11:36:19;;;;;;;7.18;2.40;;;;;;;25.27;23.58;99567.78;5027197;28;20159;-71
2021/06/01 11:38:55;;;;;;;8.05;3.47;;;;;;;25.21;24.14;99563.94;5028119;28;20037;-71
2021/06/01 11:42:48;;;;;;;5.50;3.00;;;;;;;25.41;23.93;99558.94;5027649;28;20049;-69
2021/06/01 11:44:24;;;;;;;4.75;2.50;;;;;;;25.23;23.86;99566.47;5027351;28;20041;-71
2021/06/01 11:46:56;;;;;;;5.28;2.40;;;;;;;25.10;23.66;99564.28;5026965;28;20037;-70
2021/06/01 11:52:05;;;;;;;6.65;2.67;;;;;;;25.38;23.81;99567.41;5027167;28;20048;-70
2021/06/01 11:54:31;;;;;;;8.50;2.53;;;;;;;25.17;23.93;99561.75;5027167;28;20038;-69
2021/06/01 12:05:26;;;;;;;6.47;2.63;;;;;;;25.51;24.35;99536.28;5027041;28;20052;-71
2021/06/01 12:18:54;;;;;;;11.82;2.45;;;;;;;24.82;24.61;99540.44;5034521;28;20099;-71
2021/06/01 12:21:30;;;;;;;4.63;2.45;;;;;;;24.94;25.02;99554.41;5027561;28;20048;-71
2021/06/01 12:24:01;;;;;;;10.25;2.55;;;;;;;25.09;24.82;99542.88;5024812;28;20107;-72
2021/06/01 12:26:47;;;;;;;6.40;2.30;;;;;;;25.13;24.79;99534.28;5029803;28;20038;-71
2021/06/01 12:32:26;;;;;;;6.80;2.58;;;;;;;24.97;25.07;99543.25;5010259;28;21032;-72
2021/06/01 12:35:32;;;;;;;3.45;2.22;;;;;;;24.82;25.91;99528.81;5034409;28;20025;-71
2021/06/01 12:43:47;;;;;;;5.18;3.05;;;;;;;24.96;25.86;99511.91;5029000;28;20045;-70
2021/06/01 13:37:59;;;;;;;6.78;3.38;;;;;;;24.95;25.56;99469.75;5004319;28;20376;-70
2021/06/01 13:46:21;;;;;;;9.18;2.40;;;;;;;25.16;25.72;99461.06;5006965;28;20433;-71
2021/06/01 13:56:07;;;;;;;5.13;3.50;;;;;;;25.20;25.48;99453.47;5024642;28;20048;-70
2021/06/01 14:01:14;;;;;;;3.33;2.30;;;;;;;25.20;25.56;99450.78;5019508;28;20052;-71
2021/06/01 14:09:43;;;;;;;4.10;2.28;;;;;;;25.15;26.14;99442.34;5016093;28;20121;-71